sensor_id;sensor_type;location;lat;lon;timestamp;P1;durP1;ratioP1;P2;durP2;ratioP2
46222;SDS011;31943;51.410;7.564;2023-02-20T02:12:00;15.82;;;10.40;;
46222;SDS011;31943;51.410;7.564;2023-02-20T02:14:31;15.98;;;11.07;;
46222;SDS011;31943;51.410;7.564;2023-02-20T02:17:01;15.77;;;11.47;;
46222;SDS011;31943;51.410;7.564;2023-02-20T02:19:48;15.90;;;10.60;;
46222;SDS011;31943;51.410;7.564;2023-02-20T02:25:39;15.65;;;10.95;;
46222;SDS011;31943;51.410;7.564;2023-02-20T02:28:30;15.18;;;10.63;;
46222;SDS011;31943;51.410;7.564;2023-02-20T02:34:45;13.07;;;10.35;;
46222;SDS011;31943;51.410;7.564;2023-02-20T02:37:33;13.35;;;10.00;;
46222;SDS011;31943;51.410;7.564;2023-02-20T02:40:14;17.92;;;11.65;;
46222;SDS011;31943;51.410;7.564;2023-02-20T02:42:51;13.43;;;10.57;;
46222;SDS011;31943;51.410;7.564;2023-02-20T02:45:26;13.93;;;9.85;;
46222;SDS011;31943;51.410;7.564;2023-02-20T02:47:58;15.23;;;10.38;;
46222;SDS011;31943;51.410;7.564;2023-02-20T02:50:31;15.95;;;10.55;;
46222;SDS011;31943;51.410;7.564;2023-02-20T02:53:03;16.15;;;10.88;;
46222;SDS011;31943;51.410;7.564;2023-02-20T02:55:44;12.98;;;9.80;;
46222;SDS011;31943;51.410;7.564;2023-02-20T02:58:12;16.52;;;10.68;;
46222;SDS011;31943;51.410;7.564;2023-02-20T03:00:45;15.32;;;9.80;;
46222;SDS011;31943;51.410;7.564;2023-02-20T03:03:18;15.23;;;10.38;;
46222;SDS011;31943;51.410;7.564;2023-02-20T03:05:49;15.43;;;10.55;;
46222;SDS011;31943;51.410;7.564;2023-02-20T03:08:25;16.80;;;10.88;;
46222;SDS011;31943;51.410;7.564;2023-02-20T03:10:57;13.55;;;10.63;;
46222;SDS011;31943;51.410;7.564;2023-02-20T03:13:27;15.37;;;10.13;;
46222;SDS011;31943;51.410;7.564;2023-02-20T03:15:57;15.60;;;9.88;;
46222;SDS011;31943;51.410;7.564;2023-02-20T03:18:28;16.40;;;10.05;;
46222;SDS011;31943;51.410;7.564;2023-02-20T03:21:00;12.35;;;9.98;;
46222;SDS011;31943;51.410;7.564;2023-02-20T03:23:34;16.48;;;9.60;;
46222;SDS011;31943;51.410;7.564;2023-02-20T03:26:06;19.17;;;10.90;;
46222;SDS011;31943;51.410;7.564;2023-02-20T03:28:38;15.68;;;9.95;;
46222;SDS011;31943;51.410;7.564;2023-02-20T03:31:07;13.45;;;10.05;;
46222;SDS011;31943;51.410;7.564;2023-02-20T03:33:39;15.05;;;10.38;;
46222;SDS011;31943;51.410;7.564;2023-02-20T03:36:11;13.13;;;10.00;;
46222;SDS011;31943;51.410;7.564;2023-02-20T03:38:42;12.32;;;9.05;;
46222;SDS011;31943;51.410;7.564;2023-02-20T03:41:13;14.95;;;9.35;;
46222;SDS011;31943;51.410;7.564;2023-02-20T03:43:40;15.80;;;9.38;;
46222;SDS011;31943;51.410;7.564;2023-02-20T03:46:10;13.52;;;9.02;;
46222;SDS011;31943;51.410;7.564;2023-02-20T03:48:41;15.13;;;8.65;;
46222;SDS011;31943;51.410;7.564;2023-02-20T03:51:11;14.75;;;7.95;;
46222;SDS011;31943;51.410;7.564;2023-02-20T03:53:37;12.85;;;9.25;;
46222;SDS011;31943;51.410;7.564;2023-02-20T03:56:12;13.35;;;8.63;;
46222;SDS011;31943;51.410;7.564;2023-02-20T03:58:44;15.35;;;9.60;;
46222;SDS011;31943;51.410;7.564;2023-02-20T04:01:14;14.38;;;9.45;;
46222;SDS011;31943;51.410;7.564;2023-02-20T04:03:45;13.05;;;9.65;;
46222;SDS011;31943;51.410;7.564;2023-02-20T04:06:13;14.45;;;9.60;;
46222;SDS011;31943;51.410;7.564;2023-02-20T04:08:41;15.82;;;9.60;;
46222;SDS011;31943;51.410;7.564;2023-02-20T04:11:13;14.75;;;9.75;;
46222;SDS011;31943;51.410;7.564;2023-02-20T04:13:43;16.75;;;10.52;;
46222;SDS011;31943;51.410;7.564;2023-02-20T04:16:14;17.92;;;9.82;;
46222;SDS011;31943;51.410;7.564;2023-02-20T04:18:40;17.77;;;10.82;;
46222;SDS011;31943;51.410;7.564;2023-02-20T04:21:07;15.48;;;10.18;;
46222;SDS011;31943;51.410;7.564;2023-02-20T04:23:40;16.42;;;10.15;;
46222;SDS011;31943;51.410;7.564;2023-02-20T04:26:14;16.05;;;10.05;;
46222;SDS011;31943;51.410;7.564;2023-02-20T04:28:43;12.40;;;9.00;;
46222;SDS011;31943;51.410;7.564;2023-02-20T04:31:09;18.05;;;9.50;;
46222;SDS011;31943;51.410;7.564;2023-02-20T04:33:37;13.38;;;9.80;;
46222;SDS011;31943;51.410;7.564;2023-02-20T04:36:04;13.00;;;8.70;;
46222;SDS011;31943;51.410;7.564;2023-02-20T04:38:30;14.23;;;8.95;;
46222;SDS011;31943;51.410;7.564;2023-02-20T04:40:55;13.45;;;8.65;;
46222;SDS011;31943;51.410;7.564;2023-02-20T04:43:24;14.38;;;8.82;;
46222;SDS011;31943;51.410;7.564;2023-02-20T04:45:49;13.93;;;8.88;;
46222;SDS011;31943;51.410;7.564;2023-02-20T04:48:15;13.93;;;7.82;;
46222;SDS011;31943;51.410;7.564;2023-02-20T04:50:41;11.23;;;7.78;;
46222;SDS011;31943;51.410;7.564;2023-02-20T04:53:07;14.20;;;7.18;;
46222;SDS011;31943;51.410;7.564;2023-02-20T04:55:32;12.02;;;7.90;;
46222;SDS011;31943;51.410;7.564;2023-02-20T04:57:59;12.15;;;7.03;;
46222;SDS011;31943;51.410;7.564;2023-02-20T05:00:26;13.80;;;7.75;;
46222;SDS011;31943;51.410;7.564;2023-02-20T05:02:52;10.73;;;6.75;;
46222;SDS011;31943;51.410;7.564;2023-02-20T05:05:19;14.10;;;7.65;;
46222;SDS011;31943;51.410;7.564;2023-02-20T05:07:48;12.05;;;6.43;;
46222;SDS011;31943;51.410;7.564;2023-02-20T05:10:19;12.02;;;6.50;;
46222;SDS011;31943;51.410;7.564;2023-02-20T05:12:46;13.48;;;6.80;;
46222;SDS011;31943;51.410;7.564;2023-02-20T05:15:12;9.70;;;5.93;;
46222;SDS011;31943;51.410;7.564;2023-02-20T05:17:43;11.00;;;6.38;;
46222;SDS011;31943;51.410;7.564;2023-02-20T05:20:09;12.38;;;6.93;;
46222;SDS011;31943;51.410;7.564;2023-02-20T05:22:35;10.70;;;6.30;;
46222;SDS011;31943;51.410;7.564;2023-02-20T05:25:01;8.82;;;5.82;;
46222;SDS011;31943;51.410;7.564;2023-02-20T05:27:27;10.10;;;6.25;;
46222;SDS011;31943;51.410;7.564;2023-02-20T05:29:53;7.18;;;5.45;;
46222;SDS011;31943;51.410;7.564;2023-02-20T05:32:20;10.52;;;6.05;;
46222;SDS011;31943;51.410;7.564;2023-02-20T05:34:49;13.10;;;6.30;;
46222;SDS011;31943;51.410;7.564;2023-02-20T05:37:15;11.93;;;6.28;;
46222;SDS011;31943;51.410;7.564;2023-02-20T05:39:42;10.20;;;6.03;;
46222;SDS011;31943;51.410;7.564;2023-02-20T05:42:07;12.43;;;6.72;;
46222;SDS011;31943;51.410;7.564;2023-02-20T05:44:33;8.90;;;5.85;;
46222;SDS011;31943;51.410;7.564;2023-02-20T05:47:00;11.35;;;5.85;;
46222;SDS011;31943;51.410;7.564;2023-02-20T05:49:26;11.38;;;6.50;;
46222;SDS011;31943;51.410;7.564;2023-02-20T05:51:56;12.60;;;6.72;;
46222;SDS011;31943;51.410;7.564;2023-02-20T05:54:22;11.90;;;5.88;;
46222;SDS011;31943;51.410;7.564;2023-02-20T05:56:48;14.73;;;6.50;;
46222;SDS011;31943;51.410;7.564;2023-02-20T05:59:16;12.32;;;6.35;;
46222;SDS011;31943;51.410;7.564;2023-02-20T06:01:43;12.55;;;5.78;;
46222;SDS011;31943;51.410;7.564;2023-02-20T06:04:09;11.18;;;6.00;;
46222;SDS011;31943;51.410;7.564;2023-02-20T06:06:35;9.40;;;5.55;;
46222;SDS011;31943;51.410;7.564;2023-02-20T06:09:04;9.75;;;5.25;;
46222;SDS011;31943;51.410;7.564;2023-02-20T06:11:31;11.15;;;6.35;;
46222;SDS011;31943;51.410;7.564;2023-02-20T06:13:56;7.97;;;4.70;;
46222;SDS011;31943;51.410;7.564;2023-02-20T06:16:23;9.18;;;5.20;;
46222;SDS011;31943;51.410;7.564;2023-02-20T06:18:50;11.40;;;6.20;;
46222;SDS011;31943;51.410;7.564;2023-02-20T06:21:16;8.07;;;5.45;;
46222;SDS011;31943;51.410;7.564;2023-02-20T06:23:42;8.27;;;5.30;;
46222;SDS011;31943;51.410;7.564;2023-02-20T06:26:10;9.43;;;5.53;;
46222;SDS011;31943;51.410;7.564;2023-02-20T06:28:38;9.48;;;4.78;;
46222;SDS011;31943;51.410;7.564;2023-02-20T06:31:04;9.52;;;5.68;;
46222;SDS011;31943;51.410;7.564;2023-02-20T06:33:30;9.30;;;5.28;;
46222;SDS011;31943;51.410;7.564;2023-02-20T06:35:55;11.23;;;5.65;;
46222;SDS011;31943;51.410;7.564;2023-02-20T06:38:21;12.23;;;6.03;;
46222;SDS011;31943;51.410;7.564;2023-02-20T06:40:47;10.63;;;4.72;;
46222;SDS011;31943;51.410;7.564;2023-02-20T06:43:14;11.90;;;5.68;;
46222;SDS011;31943;51.410;7.564;2023-02-20T06:45:40;10.98;;;5.43;;
46222;SDS011;31943;51.410;7.564;2023-02-20T06:48:06;8.55;;;5.32;;
46222;SDS011;31943;51.410;7.564;2023-02-20T06:50:31;12.10;;;4.90;;
46222;SDS011;31943;51.410;7.564;2023-02-20T06:52:57;12.88;;;5.32;;
46222;SDS011;31943;51.410;7.564;2023-02-20T06:55:23;9.25;;;5.43;;
46222;SDS011;31943;51.410;7.564;2023-02-20T06:57:48;7.00;;;5.38;;
46222;SDS011;31943;51.410;7.564;2023-02-20T07:00:17;9.52;;;5.97;;
46222;SDS011;31943;51.410;7.564;2023-02-20T07:02:43;10.55;;;5.95;;
46222;SDS011;31943;51.410;7.564;2023-02-20T07:05:09;10.65;;;6.03;;
46222;SDS011;31943;51.410;7.564;2023-02-20T07:07:35;9.88;;;5.93;;
46222;SDS011;31943;51.410;7.564;2023-02-20T07:10:01;10.80;;;6.40;;
46222;SDS011;31943;51.410;7.564;2023-02-20T07:12:27;11.48;;;6.20;;
46222;SDS011;31943;51.410;7.564;2023-02-20T07:14:54;12.68;;;6.95;;
46222;SDS011;31943;51.410;7.564;2023-02-20T07:17:21;10.10;;;6.22;;
46222;SDS011;31943;51.410;7.564;2023-02-20T07:19:46;11.82;;;7.40;;
46222;SDS011;31943;51.410;7.564;2023-02-20T07:22:13;12.75;;;7.00;;
46222;SDS011;31943;51.410;7.564;2023-02-20T07:24:39;10.30;;;6.25;;
46222;SDS011;31943;51.410;7.564;2023-02-20T07:27:04;12.38;;;7.38;;
46222;SDS011;31943;51.410;7.564;2023-02-20T07:29:30;12.55;;;8.70;;
46222;SDS011;31943;51.410;7.564;2023-02-20T07:31:55;13.32;;;9.02;;
46222;SDS011;31943;51.410;7.564;2023-02-20T07:34:23;13.25;;;8.77;;
46222;SDS011;31943;51.410;7.564;2023-02-20T07:36:49;14.85;;;9.07;;
46222;SDS011;31943;51.410;7.564;2023-02-20T07:39:14;12.30;;;8.80;;
46222;SDS011;31943;51.410;7.564;2023-02-20T07:41:40;12.23;;;8.63;;
46222;SDS011;31943;51.410;7.564;2023-02-20T07:44:06;13.57;;;9.23;;
46222;SDS011;31943;51.410;7.564;2023-02-20T07:46:31;12.70;;;8.55;;
46222;SDS011;31943;51.410;7.564;2023-02-20T07:48:58;12.05;;;8.00;;
46222;SDS011;31943;51.410;7.564;2023-02-20T07:51:25;12.05;;;8.88;;
46222;SDS011;31943;51.410;7.564;2023-02-20T07:53:51;11.60;;;8.30;;
46222;SDS011;31943;51.410;7.564;2023-02-20T07:56:17;12.43;;;8.93;;
46222;SDS011;31943;51.410;7.564;2023-02-20T07:58:43;13.95;;;9.48;;
46222;SDS011;31943;51.410;7.564;2023-02-20T08:01:09;11.98;;;8.63;;
46222;SDS011;31943;51.410;7.564;2023-02-20T08:03:35;12.98;;;9.63;;
46222;SDS011;31943;51.410;7.564;2023-02-20T08:06:01;17.35;;;9.73;;
46222;SDS011;31943;51.410;7.564;2023-02-20T08:08:29;14.32;;;8.82;;
46222;SDS011;31943;51.410;7.564;2023-02-20T08:10:56;11.50;;;9.65;;
46222;SDS011;31943;51.410;7.564;2023-02-20T08:13:23;15.85;;;9.82;;
46222;SDS011;31943;51.410;7.564;2023-02-20T08:15:49;15.48;;;10.00;;
46222;SDS011;31943;51.410;7.564;2023-02-20T08:18:18;13.00;;;9.85;;
46222;SDS011;31943;51.410;7.564;2023-02-20T08:20:44;11.20;;;8.50;;
46222;SDS011;31943;51.410;7.564;2023-02-20T08:23:14;11.82;;;9.38;;
46222;SDS011;31943;51.410;7.564;2023-02-20T08:28:08;11.15;;;8.90;;
46222;SDS011;31943;51.410;7.564;2023-02-20T08:30:34;16.42;;;10.32;;
46222;SDS011;31943;51.410;7.564;2023-02-20T08:33:00;13.85;;;10.02;;
46222;SDS011;31943;51.410;7.564;2023-02-20T08:35:26;17.58;;;10.00;;
46222;SDS011;31943;51.410;7.564;2023-02-20T08:37:52;17.20;;;11.00;;
46222;SDS011;31943;51.410;7.564;2023-02-20T08:40:18;14.77;;;10.25;;
46222;SDS011;31943;51.410;7.564;2023-02-20T08:42:45;12.48;;;10.70;;
46222;SDS011;31943;51.410;7.564;2023-02-20T08:45:13;16.45;;;9.88;;
46222;SDS011;31943;51.410;7.564;2023-02-20T08:47:39;12.15;;;9.75;;
46222;SDS011;31943;51.410;7.564;2023-02-20T08:50:05;15.43;;;11.50;;
46222;SDS011;31943;51.410;7.564;2023-02-20T08:52:31;14.25;;;9.82;;
46222;SDS011;31943;51.410;7.564;2023-02-20T08:54:56;11.77;;;9.60;;
46222;SDS011;31943;51.410;7.564;2023-02-20T08:57:22;13.43;;;10.35;;
46222;SDS011;31943;51.410;7.564;2023-02-20T08:59:51;14.38;;;10.23;;
46222;SDS011;31943;51.410;7.564;2023-02-20T09:02:17;15.07;;;10.30;;
46222;SDS011;31943;51.410;7.564;2023-02-20T09:04:43;16.90;;;10.75;;
46222;SDS011;31943;51.410;7.564;2023-02-20T09:07:09;14.68;;;10.45;;
46222;SDS011;31943;51.410;7.564;2023-02-20T09:09:35;12.10;;;9.82;;
46222;SDS011;31943;51.410;7.564;2023-02-20T09:12:00;14.93;;;10.20;;
46222;SDS011;31943;51.410;7.564;2023-02-20T09:14:26;18.13;;;11.13;;
46222;SDS011;31943;51.410;7.564;2023-02-20T09:16:53;14.65;;;10.82;;
46222;SDS011;31943;51.410;7.564;2023-02-20T09:19:19;13.70;;;10.20;;
46222;SDS011;31943;51.410;7.564;2023-02-20T09:21:44;13.50;;;10.10;;
46222;SDS011;31943;51.410;7.564;2023-02-20T09:24:10;16.38;;;10.23;;
46222;SDS011;31943;51.410;7.564;2023-02-20T09:26:36;13.77;;;10.65;;
46222;SDS011;31943;51.410;7.564;2023-02-20T09:29:02;15.98;;;10.68;;
46222;SDS011;31943;51.410;7.564;2023-02-20T09:31:28;14.82;;;10.10;;
46222;SDS011;31943;51.410;7.564;2023-02-20T09:33:55;14.45;;;10.68;;
46222;SDS011;31943;51.410;7.564;2023-02-20T09:36:21;14.85;;;10.50;;
46222;SDS011;31943;51.410;7.564;2023-02-20T09:38:47;14.35;;;9.90;;
46222;SDS011;31943;51.410;7.564;2023-02-20T09:41:17;14.20;;;11.05;;
46222;SDS011;31943;51.410;7.564;2023-02-20T09:43:51;15.45;;;10.63;;
46222;SDS011;31943;51.410;7.564;2023-02-20T09:46:24;15.13;;;11.02;;
46222;SDS011;31943;51.410;7.564;2023-02-20T09:48:59;18.25;;;12.15;;
46222;SDS011;31943;51.410;7.564;2023-02-20T09:51:30;20.25;;;12.40;;
46222;SDS011;31943;51.410;7.564;2023-02-20T09:53:59;21.95;;;12.35;;
46222;SDS011;31943;51.410;7.564;2023-02-20T09:56:30;15.38;;;11.35;;
46222;SDS011;31943;51.410;7.564;2023-02-20T09:59:00;17.02;;;12.65;;
46222;SDS011;31943;51.410;7.564;2023-02-20T10:01:30;16.42;;;10.88;;
46222;SDS011;31943;51.410;7.564;2023-02-20T10:03:59;17.52;;;11.90;;
46222;SDS011;31943;51.410;7.564;2023-02-20T10:06:30;19.98;;;12.45;;
46222;SDS011;31943;51.410;7.564;2023-02-20T10:08:57;16.52;;;12.75;;
46222;SDS011;31943;51.410;7.564;2023-02-20T10:14:21;19.88;;;13.65;;
46222;SDS011;31943;51.410;7.564;2023-02-20T10:17:10;20.85;;;13.95;;
46222;SDS011;31943;51.410;7.564;2023-02-20T10:19:47;19.98;;;14.48;;
46222;SDS011;31943;51.410;7.564;2023-02-20T10:22:19;17.20;;;12.95;;
46222;SDS011;31943;51.410;7.564;2023-02-20T10:24:54;18.65;;;12.95;;
46222;SDS011;31943;51.410;7.564;2023-02-20T10:27:34;18.35;;;13.57;;
46222;SDS011;31943;51.410;7.564;2023-02-20T10:30:17;19.88;;;14.05;;
46222;SDS011;31943;51.410;7.564;2023-02-20T10:32:49;20.40;;;13.32;;
46222;SDS011;31943;51.410;7.564;2023-02-20T10:35:21;17.50;;;13.32;;
46222;SDS011;31943;51.410;7.564;2023-02-20T10:37:49;18.08;;;13.05;;
46222;SDS011;31943;51.410;7.564;2023-02-20T10:40:20;19.60;;;14.52;;
46222;SDS011;31943;51.410;7.564;2023-02-20T10:42:52;22.20;;;13.33;;
46222;SDS011;31943;51.410;7.564;2023-02-20T10:45:25;17.17;;;13.43;;
46222;SDS011;31943;51.410;7.564;2023-02-20T10:47:56;18.40;;;13.52;;
46222;SDS011;31943;51.410;7.564;2023-02-20T10:50:31;19.60;;;14.57;;
46222;SDS011;31943;51.410;7.564;2023-02-20T10:53:03;20.08;;;13.32;;
46222;SDS011;31943;51.410;7.564;2023-02-20T10:55:34;19.15;;;14.75;;
46222;SDS011;31943;51.410;7.564;2023-02-20T10:58:07;17.35;;;14.40;;
46222;SDS011;31943;51.410;7.564;2023-02-20T11:00:39;16.88;;;13.77;;
46222;SDS011;31943;51.410;7.564;2023-02-20T11:03:11;17.23;;;14.07;;
46222;SDS011;31943;51.410;7.564;2023-02-20T11:05:45;18.33;;;14.07;;
46222;SDS011;31943;51.410;7.564;2023-02-20T11:08:14;18.02;;;14.45;;
46222;SDS011;31943;51.410;7.564;2023-02-20T11:10:40;17.95;;;13.23;;
46222;SDS011;31943;51.410;7.564;2023-02-20T11:13:07;17.25;;;13.35;;
46222;SDS011;31943;51.410;7.564;2023-02-20T11:15:38;18.95;;;13.65;;
46222;SDS011;31943;51.410;7.564;2023-02-20T11:18:10;18.13;;;14.05;;
46222;SDS011;31943;51.410;7.564;2023-02-20T11:20:46;21.80;;;14.75;;
46222;SDS011;31943;51.410;7.564;2023-02-20T11:23:34;18.25;;;13.27;;
46222;SDS011;31943;51.410;7.564;2023-02-20T11:29:02;20.30;;;13.75;;
46222;SDS011;31943;51.410;7.564;2023-02-20T11:31:34;19.88;;;13.70;;
46222;SDS011;31943;51.410;7.564;2023-02-20T11:33:59;19.45;;;12.55;;
46222;SDS011;31943;51.410;7.564;2023-02-20T11:36:30;20.05;;;12.65;;
46222;SDS011;31943;51.410;7.564;2023-02-20T11:39:02;17.60;;;12.25;;
46222;SDS011;31943;51.410;7.564;2023-02-20T11:41:37;16.08;;;12.00;;
46222;SDS011;31943;51.410;7.564;2023-02-20T11:44:18;15.07;;;12.68;;
46222;SDS011;31943;51.410;7.564;2023-02-20T11:46:46;16.65;;;12.63;;
46222;SDS011;31943;51.410;7.564;2023-02-20T11:49:21;19.35;;;12.82;;
46222;SDS011;31943;51.410;7.564;2023-02-20T11:51:49;23.60;;;12.95;;
46222;SDS011;31943;51.410;7.564;2023-02-20T11:54:17;16.35;;;11.70;;
46222;SDS011;31943;51.410;7.564;2023-02-20T11:56:54;14.68;;;10.57;;
46222;SDS011;31943;51.410;7.564;2023-02-20T11:59:26;13.48;;;11.77;;
46222;SDS011;31943;51.410;7.564;2023-02-20T12:02:05;17.80;;;12.60;;
46222;SDS011;31943;51.410;7.564;2023-02-20T12:04:36;17.48;;;12.68;;
46222;SDS011;31943;51.410;7.564;2023-02-20T12:07:05;15.98;;;12.57;;
46222;SDS011;31943;51.410;7.564;2023-02-20T12:09:42;16.27;;;13.15;;
46222;SDS011;31943;51.410;7.564;2023-02-20T12:12:12;18.02;;;13.82;;
46222;SDS011;31943;51.410;7.564;2023-02-20T12:14:38;18.58;;;14.68;;
46222;SDS011;31943;51.410;7.564;2023-02-20T12:17:08;19.58;;;15.38;;
46222;SDS011;31943;51.410;7.564;2023-02-20T12:19:46;20.00;;;15.70;;
46222;SDS011;31943;51.410;7.564;2023-02-20T12:22:21;21.17;;;15.70;;
46222;SDS011;31943;51.410;7.564;2023-02-20T12:25:01;21.65;;;16.25;;
46222;SDS011;31943;51.410;7.564;2023-02-20T12:27:45;19.67;;;16.58;;
46222;SDS011;31943;51.410;7.564;2023-02-20T12:30:22;20.92;;;16.13;;
46222;SDS011;31943;51.410;7.564;2023-02-20T12:32:59;19.17;;;15.45;;
46222;SDS011;31943;51.410;7.564;2023-02-20T12:35:35;20.83;;;16.02;;
46222;SDS011;31943;51.410;7.564;2023-02-20T12:38:20;19.27;;;14.98;;
46222;SDS011;31943;51.410;7.564;2023-02-20T12:41:05;19.60;;;14.68;;
46222;SDS011;31943;51.410;7.564;2023-02-20T12:43:43;21.85;;;15.63;;
46222;SDS011;31943;51.410;7.564;2023-02-20T12:46:15;19.33;;;13.32;;
46222;SDS011;31943;51.410;7.564;2023-02-20T12:48:49;16.35;;;11.25;;
46222;SDS011;31943;51.410;7.564;2023-02-20T12:51:31;18.65;;;13.18;;
46222;SDS011;31943;51.410;7.564;2023-02-20T12:56:57;14.50;;;11.63;;
46222;SDS011;31943;51.410;7.564;2023-02-20T12:59:30;14.68;;;12.15;;
46222;SDS011;31943;51.410;7.564;2023-02-20T13:02:11;15.30;;;12.80;;
46222;SDS011;31943;51.410;7.564;2023-02-20T13:04:43;15.25;;;13.25;;
46222;SDS011;31943;51.410;7.564;2023-02-20T13:07:13;15.90;;;12.55;;
46222;SDS011;31943;51.410;7.564;2023-02-20T13:09:44;16.73;;;12.85;;
46222;SDS011;31943;51.410;7.564;2023-02-20T13:12:23;16.65;;;11.27;;
46222;SDS011;31943;51.410;7.564;2023-02-20T13:14:54;16.38;;;10.70;;
46222;SDS011;31943;51.410;7.564;2023-02-20T13:17:27;14.38;;;10.40;;
46222;SDS011;31943;51.410;7.564;2023-02-20T13:19:59;18.08;;;11.20;;
46222;SDS011;31943;51.410;7.564;2023-02-20T13:22:34;15.93;;;10.93;;
46222;SDS011;31943;51.410;7.564;2023-02-20T13:31:07;14.32;;;10.75;;
46222;SDS011;31943;51.410;7.564;2023-02-20T13:36:01;14.98;;;11.18;;
46222;SDS011;31943;51.410;7.564;2023-02-20T13:38:27;15.95;;;10.63;;
46222;SDS011;31943;51.410;7.564;2023-02-20T13:41:03;15.85;;;12.15;;
46222;SDS011;31943;51.410;7.564;2023-02-20T13:43:30;17.88;;;12.57;;
46222;SDS011;31943;51.410;7.564;2023-02-20T13:46:17;17.67;;;11.98;;
46222;SDS011;31943;51.410;7.564;2023-02-20T13:48:43;15.88;;;11.77;;
46222;SDS011;31943;51.410;7.564;2023-02-20T13:51:30;18.05;;;13.05;;
46222;SDS011;31943;51.410;7.564;2023-02-20T13:53:59;24.70;;;16.48;;
46222;SDS011;31943;51.410;7.564;2023-02-20T13:56:44;17.75;;;13.02;;
46222;SDS011;31943;51.410;7.564;2023-02-20T13:59:13;16.75;;;12.80;;
46222;SDS011;31943;51.410;7.564;2023-02-20T14:01:56;19.48;;;13.70;;
46222;SDS011;31943;51.410;7.564;2023-02-20T14:04:25;20.95;;;13.13;;
46222;SDS011;31943;51.410;7.564;2023-02-20T14:06:51;19.40;;;13.45;;
46222;SDS011;31943;51.410;7.564;2023-02-20T14:09:18;16.60;;;13.40;;
46222;SDS011;31943;51.410;7.564;2023-02-20T14:11:46;17.73;;;13.55;;
46222;SDS011;31943;51.410;7.564;2023-02-20T14:14:18;18.90;;;13.10;;
46222;SDS011;31943;51.410;7.564;2023-02-20T14:16:50;21.80;;;12.52;;
46222;SDS011;31943;51.410;7.564;2023-02-20T14:19:18;16.77;;;12.18;;
46222;SDS011;31943;51.410;7.564;2023-02-20T14:21:48;16.45;;;11.70;;
46222;SDS011;31943;51.410;7.564;2023-02-20T14:24:17;17.33;;;12.90;;
46222;SDS011;31943;51.410;7.564;2023-02-20T14:26:45;19.05;;;12.95;;
46222;SDS011;31943;51.410;7.564;2023-02-20T14:29:18;16.65;;;12.30;;
46222;SDS011;31943;51.410;7.564;2023-02-20T14:31:45;16.42;;;11.57;;
46222;SDS011;31943;51.410;7.564;2023-02-20T14:34:15;17.52;;;12.75;;
46222;SDS011;31943;51.410;7.564;2023-02-20T14:36:50;14.88;;;12.48;;
46222;SDS011;31943;51.410;7.564;2023-02-20T14:39:40;19.50;;;12.95;;
46222;SDS011;31943;51.410;7.564;2023-02-20T14:42:12;14.63;;;11.27;;
46222;SDS011;31943;51.410;7.564;2023-02-20T14:44:40;16.60;;;12.30;;
46222;SDS011;31943;51.410;7.564;2023-02-20T14:47:06;18.58;;;12.25;;
46222;SDS011;31943;51.410;7.564;2023-02-20T14:49:37;16.05;;;12.43;;
46222;SDS011;31943;51.410;7.564;2023-02-20T14:52:04;17.25;;;12.77;;
46222;SDS011;31943;51.410;7.564;2023-02-20T14:54:38;16.50;;;12.10;;
46222;SDS011;31943;51.410;7.564;2023-02-20T14:57:05;17.33;;;12.35;;
46222;SDS011;31943;51.410;7.564;2023-02-20T14:59:33;18.27;;;12.68;;
46222;SDS011;31943;51.410;7.564;2023-02-20T15:02:00;17.27;;;12.27;;
46222;SDS011;31943;51.410;7.564;2023-02-20T15:04:44;16.90;;;12.43;;
46222;SDS011;31943;51.410;7.564;2023-02-20T15:07:11;19.98;;;14.23;;
46222;SDS011;31943;51.410;7.564;2023-02-20T15:09:37;17.23;;;12.35;;
46222;SDS011;31943;51.410;7.564;2023-02-20T15:12:05;19.70;;;13.07;;
46222;SDS011;31943;51.410;7.564;2023-02-20T15:14:52;18.08;;;12.57;;
46222;SDS011;31943;51.410;7.564;2023-02-20T15:17:21;17.67;;;13.02;;
46222;SDS011;31943;51.410;7.564;2023-02-20T15:19:50;20.67;;;13.98;;
46222;SDS011;31943;51.410;7.564;2023-02-20T15:22:30;19.45;;;12.25;;
46222;SDS011;31943;51.410;7.564;2023-02-20T15:25:13;20.63;;;14.15;;
46222;SDS011;31943;51.410;7.564;2023-02-20T15:28:03;18.63;;;13.60;;
46222;SDS011;31943;51.410;7.564;2023-02-20T15:30:32;20.48;;;14.98;;
46222;SDS011;31943;51.410;7.564;2023-02-20T15:33:06;21.35;;;14.00;;
46222;SDS011;31943;51.410;7.564;2023-02-20T15:35:36;21.67;;;15.10;;
46222;SDS011;31943;51.410;7.564;2023-02-20T15:38:02;22.65;;;15.88;;
46222;SDS011;31943;51.410;7.564;2023-02-20T15:40:32;21.13;;;14.38;;
46222;SDS011;31943;51.410;7.564;2023-02-20T15:42:59;22.92;;;14.90;;
46222;SDS011;31943;51.410;7.564;2023-02-20T15:45:25;19.05;;;14.10;;
46222;SDS011;31943;51.410;7.564;2023-02-20T15:47:53;40.53;;;25.33;;
46222;SDS011;31943;51.410;7.564;2023-02-20T15:50:19;24.73;;;14.32;;
46222;SDS011;31943;51.410;7.564;2023-02-20T15:52:46;21.65;;;14.73;;
46222;SDS011;31943;51.410;7.564;2023-02-20T15:55:13;24.30;;;14.82;;
46222;SDS011;31943;51.410;7.564;2023-02-20T15:57:40;23.75;;;14.27;;
46222;SDS011;31943;51.410;7.564;2023-02-20T16:00:10;22.50;;;15.15;;
46222;SDS011;31943;51.410;7.564;2023-02-20T16:02:42;32.75;;;21.88;;
46222;SDS011;31943;51.410;7.564;2023-02-20T16:05:08;22.52;;;14.88;;
46222;SDS011;31943;51.410;7.564;2023-02-20T16:07:34;26.40;;;15.60;;
46222;SDS011;31943;51.410;7.564;2023-02-20T16:10:02;20.40;;;14.35;;
46222;SDS011;31943;51.410;7.564;2023-02-20T16:12:28;19.77;;;15.13;;
46222;SDS011;31943;51.410;7.564;2023-02-20T16:14:56;25.25;;;15.98;;
46222;SDS011;31943;51.410;7.564;2023-02-20T16:17:23;21.40;;;15.30;;
46222;SDS011;31943;51.410;7.564;2023-02-20T16:19:50;21.08;;;14.73;;
46222;SDS011;31943;51.410;7.564;2023-02-20T16:22:17;25.85;;;14.60;;
46222;SDS011;31943;51.410;7.564;2023-02-20T16:24:43;21.65;;;15.80;;
46222;SDS011;31943;51.410;7.564;2023-02-20T16:27:16;25.92;;;15.13;;
46222;SDS011;31943;51.410;7.564;2023-02-20T16:29:46;23.92;;;15.38;;
46222;SDS011;31943;51.410;7.564;2023-02-20T16:32:22;23.48;;;15.43;;
46222;SDS011;31943;51.410;7.564;2023-02-20T16:34:49;24.58;;;16.63;;
46222;SDS011;31943;51.410;7.564;2023-02-20T16:37:17;25.10;;;15.60;;
46222;SDS011;31943;51.410;7.564;2023-02-20T16:39:44;24.60;;;15.02;;
46222;SDS011;31943;51.410;7.564;2023-02-20T16:42:23;23.45;;;15.50;;
46222;SDS011;31943;51.410;7.564;2023-02-20T16:44:51;21.65;;;15.15;;
46222;SDS011;31943;51.410;7.564;2023-02-20T16:47:18;19.90;;;14.75;;
46222;SDS011;31943;51.410;7.564;2023-02-20T16:49:47;21.45;;;15.65;;
46222;SDS011;31943;51.410;7.564;2023-02-20T16:52:15;27.27;;;16.42;;
46222;SDS011;31943;51.410;7.564;2023-02-20T16:54:46;22.92;;;16.48;;
46222;SDS011;31943;51.410;7.564;2023-02-20T16:57:13;22.05;;;15.52;;
46222;SDS011;31943;51.410;7.564;2023-02-20T16:59:40;26.05;;;16.73;;
46222;SDS011;31943;51.410;7.564;2023-02-20T17:02:05;24.48;;;16.38;;
46222;SDS011;31943;51.410;7.564;2023-02-20T17:04:34;29.83;;;18.80;;
46222;SDS011;31943;51.410;7.564;2023-02-20T17:07:00;27.45;;;18.27;;
46222;SDS011;31943;51.410;7.564;2023-02-20T17:09:27;26.35;;;17.85;;
46222;SDS011;31943;51.410;7.564;2023-02-20T17:11:53;24.83;;;16.63;;
46222;SDS011;31943;51.410;7.564;2023-02-20T17:14:20;20.10;;;15.77;;
46222;SDS011;31943;51.410;7.564;2023-02-20T17:16:51;28.67;;;16.85;;
46222;SDS011;31943;51.410;7.564;2023-02-20T17:19:18;20.95;;;16.45;;